Disclaimer

Please do not use the information listed here in-flight or in-navigation, as they are not provided to us by the airports but are provided by volunteers, so they might be outdated.

Search


Regions


Airport information page

Radio informations:
Tower (TWR) - 123.5 MHz
Approach (APP) - 123.5 MHz

Airport informations:
Latitude: 58° 12' 56.00" N
Longitude: 006° 19' 52.00" W
Elevation: 26 feet - 8 meters
Operating hours: Remarks
Operating agency: Civil government, landing fees and diplomatic clearance may be required
Timezone: UTC 0(+1DT) - Last Sunday in March to last Sunday in October
Fuel: Jet A1, without icing nhibitor.

100/130 MIL Spec, low lead, aviation gasoline (BLUE)

Runway information:
07/25 - 3281 x 75 feet< - >1000 x 23 meters
18/36 - 7218 x 151 feet< - >2200 x 46 meters

Recent METARs:
EGPO 160820Z AUTO 27009KT 9999 FEW027/// SCT034/// BKN045/// 05/03 Q0989
EGPO 160850Z AUTO 27005KT 9999 FEW023/// SCT037/// BKN048/// 05/04 Q0990
EGPO 160920Z AUTO 22004KT 9999 NCD 04/03 Q0990

Airport on the map: